Time;durP1;ratioP1;P1;durP2;ratioP2;P2;SDS_P1;SDS_P2;PMS_P1;PMS_P2;Temp;Humidity;BMP_temperature;BMP_pressure;BME280_temperature;BME280_humidity;BME280_pressure;Samples;Min_cycle;Max_cycle;Signal;HPM_P1;HPM_P2
2021/12/21 07:01:06;;;;;;;59.13;28.35;;;2.10;99.90;;;;;;5621377;23;20500;-84
2021/12/21 07:03:37;;;;;;;58.25;27.95;;;2.10;99.90;;;;;;4921267;29;20103;-87
2021/12/21 07:06:06;;;;;;;58.30;27.80;;;2.10;99.90;;;;;;4917569;29;20107;-85
2021/12/21 07:08:45;;;;;;;58.92;28.30;;;2.10;99.90;;;;;;4933274;28;20050;-82
2021/12/21 07:11:36;;;;;;;60.38;27.75;;;2.10;99.90;;;;;;4955184;28;20051;-87
2021/12/21 07:19:36;;;;;;;57.08;26.75;;;2.10;99.90;;;;;;4939888;29;20062;-86
2021/12/21 07:22:06;;;;;;;58.10;26.10;;;2.10;99.90;;;;;;4913845;29;20048;-86
2021/12/21 07:24:33;;;;;;;54.20;27.20;;;2.10;99.90;;;;;;4924025;29;20047;-87
2021/12/21 07:27:00;;;;;;;58.65;27.52;;;2.10;99.90;;;;;;4936980;29;20098;-84
2021/12/21 07:29:27;;;;;;;57.63;26.35;;;2.10;99.90;;;;;;4935463;29;20055;-85
2021/12/21 07:31:55;;;;;;;57.05;26.80;;;2.10;99.90;;;;;;4935817;29;20516;-85
2021/12/21 07:34:22;;;;;;;54.33;25.80;;;2.10;99.90;;;;;;4914168;29;20048;-85
2021/12/21 07:36:49;;;;;;;60.30;26.23;;;2.10;99.90;;;;;;4919377;29;20059;-86
2021/12/21 07:39:18;;;;;;;61.47;27.67;;;2.10;99.90;;;;;;4934895;29;20051;-85
2021/12/21 07:42:06;;;;;;;58.50;26.17;;;2.10;99.90;;;;;;4921048;29;20628;-85
2021/12/21 07:44:33;;;;;;;58.15;25.60;;;2.10;99.90;;;;;;4916474;29;20059;-84
2021/12/21 07:47:00;;;;;;;54.22;26.10;;;2.10;99.90;;;;;;4915809;29;20115;-85
2021/12/21 07:49:28;;;;;;;65.68;27.27;;;2.10;99.90;;;;;;4899216;29;20064;-84
2021/12/21 07:51:56;;;;;;;61.40;27.55;;;2.00;99.90;;;;;;4920578;29;20050;-85
2021/12/21 07:54:23;;;;;;;60.90;26.90;;;2.00;99.90;;;;;;4931699;29;20087;-85
2021/12/21 07:56:50;;;;;;;63.67;25.58;;;2.00;99.90;;;;;;4932427;29;20051;-85
2021/12/21 07:59:17;;;;;;;62.50;27.10;;;2.00;99.90;;;;;;4915230;29;20107;-85
2021/12/21 08:01:45;;;;;;;53.42;25.40;;;2.00;99.90;;;;;;4936402;28;20055;-85
2021/12/21 08:04:12;;;;;;;59.40;25.88;;;2.00;99.90;;;;;;4930962;29;20419;-85
2021/12/21 08:06:40;;;;;;;56.38;25.23;;;2.00;99.90;;;;;;4945927;28;20054;-82
2021/12/21 08:09:07;;;;;;;58.88;28.33;;;2.00;99.90;;;;;;4957055;28;20059;-85
2021/12/21 08:14:04;;;;;;;58.45;26.52;;;2.00;99.90;;;;;;4948764;28;20440;-84
2021/12/21 08:16:32;;;;;;;57.85;26.85;;;2.00;99.90;;;;;;4951265;28;20055;-84
2021/12/21 08:19:00;;;;;;;58.00;26.45;;;2.00;99.90;;;;;;4950077;28;20055;-84
2021/12/21 08:21:27;;;;;;;52.85;25.40;;;2.00;99.90;;;;;;4949939;28;20043;-84
2021/12/21 08:23:54;;;;;;;60.67;27.13;;;2.00;99.90;;;;;;4950717;28;20061;-87
2021/12/21 08:26:22;;;;;;;60.00;26.60;;;2.00;99.90;;;;;;4947922;28;20058;-85
2021/12/21 08:28:49;;;;;;;62.22;28.33;;;2.00;99.90;;;;;;4949354;28;20063;-84
2021/12/21 08:31:16;;;;;;;57.88;27.02;;;2.00;99.90;;;;;;4948670;28;20047;-86
2021/12/21 08:33:43;;;;;;;64.13;27.05;;;2.00;99.90;;;;;;4949348;28;20083;-84
2021/12/21 08:36:11;;;;;;;63.75;27.00;;;2.00;99.90;;;;;;4949988;28;20569;-80
2021/12/21 08:38:41;;;;;;;61.78;27.17;;;2.00;99.90;;;;;;4941499;28;20098;-79
2021/12/21 08:41:08;;;;;;;68.97;29.17;;;2.00;99.90;;;;;;4946675;28;20043;-80
2021/12/21 08:43:36;;;;;;;66.43;28.95;;;2.00;99.90;;;;;;4945402;28;20097;-80
2021/12/21 08:46:06;;;;;;;63.70;28.85;;;2.10;99.90;;;;;;4947238;28;20043;-79
2021/12/21 08:48:35;;;;;;;66.72;27.67;;;2.10;99.90;;;;;;4945376;28;20821;-80
2021/12/21 08:51:04;;;;;;;65.00;28.23;;;2.10;99.90;;;;;;4946752;28;20063;-79
2021/12/21 08:53:31;;;;;;;66.80;28.40;;;2.10;99.90;;;;;;4946682;28;20054;-79
2021/12/21 08:55:58;;;;;;;66.75;29.58;;;2.20;99.90;;;;;;4947386;28;20514;-79
2021/12/21 08:58:25;;;;;;;68.30;28.38;;;2.20;99.90;;;;;;4944252;28;20055;-80
2021/12/21 09:00:53;;;;;;;66.05;29.02;;;2.20;99.90;;;;;;4943111;28;20513;-80
2021/12/21 09:03:21;;;;;;;67.03;28.17;;;2.30;99.90;;;;;;4928786;29;20494;-80
2021/12/21 09:05:49;;;;;;;66.78;29.17;;;2.30;99.90;;;;;;4930120;29;20051;-79
2021/12/21 09:08:16;;;;;;;67.57;29.48;;;2.30;99.90;;;;;;4932643;28;20186;-79
2021/12/21 09:10:43;;;;;;;71.60;29.85;;;2.40;99.90;;;;;;4930814;29;20048;-80
2021/12/21 09:13:11;;;;;;;64.63;27.48;;;2.40;99.90;;;;;;4912104;29;20048;-83
2021/12/21 09:15:43;;;;;;;63.90;27.52;;;2.40;99.90;;;;;;4929628;28;20674;-83
2021/12/21 09:18:10;;;;;;;60.30;27.58;;;2.50;99.90;;;;;;4918388;29;20103;-83
2021/12/21 09:20:37;;;;;;;62.05;28.77;;;2.50;99.90;;;;;;4912361;29;20055;-83
2021/12/21 09:23:04;;;;;;;64.57;28.05;;;2.60;99.90;;;;;;4926903;29;20099;-83
2021/12/21 09:25:31;;;;;;;58.92;26.52;;;2.60;99.90;;;;;;4906688;29;20052;-83
2021/12/21 09:27:58;;;;;;;55.42;26.27;;;2.70;99.90;;;;;;4911378;29;20067;-83
2021/12/21 09:30:28;;;;;;;61.50;27.52;;;2.70;99.90;;;;;;4909739;29;20100;-83
2021/12/21 09:32:56;;;;;;;58.83;25.92;;;2.80;99.90;;;;;;4924925;29;20134;-83
2021/12/21 09:35:23;;;;;;;57.55;26.42;;;2.90;99.90;;;;;;4921801;29;20047;-83
2021/12/21 09:37:51;;;;;;;54.20;26.50;;;3.00;99.90;;;;;;4908845;29;20052;-84
2021/12/21 09:40:21;;;;;;;60.00;26.98;;;3.00;99.90;;;;;;4925649;29;20119;-83
2021/12/21 09:42:54;;;;;;;58.92;26.48;;;3.10;99.90;;;;;;4911084;29;20435;-87
2021/12/21 09:45:22;;;;;;;54.90;25.25;;;3.20;99.90;;;;;;4913524;29;20131;-84
2021/12/21 09:47:49;;;;;;;55.80;24.70;;;3.30;99.90;;;;;;4932501;29;20051;-83
2021/12/21 09:50:18;;;;;;;69.45;29.15;;;3.40;99.90;;;;;;4913544;29;20083;-84
2021/12/21 09:52:46;;;;;;;63.00;27.75;;;3.40;99.90;;;;;;4931047;29;20050;-83
2021/12/21 09:55:18;;;;;;;52.80;25.48;;;3.50;99.90;;;;;;4914463;29;20047;-83
2021/12/21 09:57:48;;;;;;;47.42;24.42;;;3.60;99.90;;;;;;4931201;29;20047;-84
2021/12/21 10:00:28;;;;;;;;;;;3.60;99.90;;;;;;4931534;28;20501;-84
2021/12/21 10:03:04;;;;;;;49.80;24.88;;;3.70;99.90;;;;;;4930704;29;19986;-82
2021/12/21 10:05:35;;;;;;;61.65;23.60;;;3.80;99.90;;;;;;4928795;29;20074;-83
2021/12/21 10:08:10;;;;;;;48.05;23.05;;;3.90;99.90;;;;;;4933327;29;20047;-83
2021/12/21 10:10:40;;;;;;;53.40;23.83;;;3.90;99.90;;;;;;4911075;29;20402;-83
2021/12/21 10:13:09;;;;;;;51.17;22.98;;;4.00;99.90;;;;;;4918078;29;20047;-84
2021/12/21 10:15:44;;;;;;;48.42;23.38;;;4.10;99.90;;;;;;4932824;29;20051;-83
2021/12/21 10:18:11;;;;;;;43.47;23.33;;;4.20;99.90;;;;;;4915128;29;20039;-83
2021/12/21 10:20:43;;;;;;;44.22;23.08;;;4.20;99.90;;;;;;4919402;29;20067;-84
2021/12/21 10:23:21;;;;;;;45.13;23.00;;;4.30;99.90;;;;;;4932230;29;20048;-81
2021/12/21 10:26:12;;;;;;;42.80;22.80;;;4.30;99.90;;;;;;4932838;29;20047;-81
2021/12/21 10:29:10;;;;;;;43.45;22.85;;;4.40;99.90;;;;;;4930733;29;20043;-82
2021/12/21 10:31:40;;;;;;;;;;;4.40;99.90;;;;;;4898694;29;20508;-83
2021/12/21 10:34:12;;;;;;;46.67;22.65;;;4.50;99.90;;;;;;4933839;29;20382;-82
2021/12/21 10:36:57;;;;;;;44.50;22.80;;;4.50;99.90;;;;;;4931725;29;20080;-82
2021/12/21 10:39:32;;;;;;;43.47;22.85;;;4.60;99.90;;;;;;4930954;29;20055;-82
2021/12/21 10:42:01;;;;;;;40.58;21.92;;;4.60;99.90;;;;;;4932871;29;20512;-82
2021/12/21 10:44:29;;;;;;;45.20;22.83;;;4.70;99.90;;;;;;4914603;29;20044;-82
2021/12/21 10:46:56;;;;;;;44.90;22.40;;;4.70;99.90;;;;;;4915974;29;20051;-81
2021/12/21 10:49:32;;;;;;;40.90;21.90;;;4.80;99.90;;;;;;4928691;29;20524;-82
2021/12/21 10:52:05;;;;;;;44.50;22.08;;;4.80;99.90;;;;;;4933404;29;20102;-82
2021/12/21 10:54:38;;;;;;;41.22;22.02;;;4.90;99.90;;;;;;4933631;29;20079;-82
2021/12/21 10:57:10;;;;;;;40.95;21.77;;;4.90;99.90;;;;;;4915374;29;20126;-81
2021/12/21 10:59:41;;;;;;;39.65;21.38;;;5.00;99.90;;;;;;4932509;29;20488;-83
2021/12/21 11:02:13;;;;;;;39.95;20.83;;;5.00;99.90;;;;;;4936317;28;20106;-82
2021/12/21 11:04:43;;;;;;;38.67;20.48;;;5.10;99.90;;;;;;4954019;28;20537;-82
2021/12/21 11:07:28;;;;;;;39.05;20.38;;;5.10;99.90;;;;;;4952381;28;20082;-84
2021/12/21 11:10:10;;;;;;;32.78;18.83;;;5.10;99.90;;;;;;4958585;28;20054;-82
2021/12/21 11:13:00;;;;;;;39.38;19.42;;;5.10;99.90;;;;;;4940464;28;20043;-83
2021/12/21 11:15:33;;;;;;;38.72;19.95;;;5.20;99.90;;;;;;4951442;28;20043;-83
2021/12/21 11:18:06;;;;;;;35.70;19.33;;;5.20;99.90;;;;;;4952014;28;20070;-82
2021/12/21 11:20:37;;;;;;;30.95;18.05;;;5.30;99.90;;;;;;4951548;28;20460;-83
2021/12/21 11:23:05;;;;;;;35.75;19.20;;;5.30;99.90;;;;;;4944199;28;20054;-84
2021/12/21 11:25:34;;;;;;;33.30;19.05;;;5.30;99.90;;;;;;4952051;28;20050;-82
2021/12/21 11:28:03;;;;;;;33.47;18.20;;;5.30;99.90;;;;;;4951652;28;20083;-84
2021/12/21 11:30:31;;;;;;;34.90;19.13;;;5.30;99.90;;;;;;4951364;28;20050;-83
2021/12/21 11:33:02;;;;;;;33.95;18.80;;;5.30;99.90;;;;;;4950436;28;20059;-82
2021/12/21 11:38:09;;;;;;;32.80;18.23;;;5.40;99.90;;;;;;4952259;28;20463;-81
2021/12/21 11:40:39;;;;;;;31.13;18.20;;;5.40;99.90;;;;;;4951026;28;20076;-83
2021/12/21 11:43:30;;;;;;;31.95;17.65;;;5.40;99.90;;;;;;4951411;28;20098;-81
2021/12/21 11:46:11;;;;;;;32.47;16.80;;;5.50;99.90;;;;;;4942696;28;20048;-81
2021/12/21 11:49:02;;;;;;;34.20;18.33;;;5.50;99.90;;;;;;4949278;28;20412;-82
2021/12/21 11:51:31;;;;;;;31.65;17.88;;;5.60;99.90;;;;;;4947722;28;20102;-84
2021/12/21 11:53:58;;;;;;;34.53;17.88;;;5.60;99.90;;;;;;4951584;28;20125;-82
2021/12/21 11:56:27;;;;;;;33.45;18.88;;;5.70;99.90;;;;;;4950349;28;20058;-81
2021/12/21 11:58:57;;;;;;;33.70;18.48;;;5.80;99.90;;;;;;4948222;28;20124;-83
2021/12/21 12:01:29;;;;;;;28.30;16.10;;;5.90;99.90;;;;;;4948714;28;20051;-82
2021/12/21 12:04:09;;;;;;;32.33;17.98;;;5.90;99.90;;;;;;4950352;28;20583;-81
2021/12/21 12:06:49;;;;;;;30.10;17.40;;;6.00;99.90;;;;;;4947850;28;20091;-83
2021/12/21 12:09:32;;;;;;;27.80;16.50;;;6.10;99.90;;;;;;4948443;28;20051;-82
2021/12/21 12:12:09;;;;;;;27.60;16.60;;;6.10;99.90;;;;;;4947509;28;20538;-82
2021/12/21 12:14:39;;;;;;;29.83;16.65;;;6.20;99.90;;;;;;4939164;28;20051;-83
2021/12/21 12:17:18;;;;;;;29.77;16.75;;;6.20;99.90;;;;;;4949788;28;20043;-82
2021/12/21 12:19:55;;;;;;;;;;;6.20;99.90;;;;;;4949931;28;20059;-82
2021/12/21 12:22:39;;;;;;;28.98;16.13;;;6.30;99.90;;;;;;4949485;28;20276;-83
2021/12/21 12:25:13;;;;;;;25.08;15.05;;;6.30;99.90;;;;;;4946389;28;20039;-81
2021/12/21 12:27:46;;;;;;;24.90;15.27;;;6.40;99.90;;;;;;4947733;28;20518;-84
2021/12/21 12:30:19;;;;;;;29.10;14.95;;;6.40;99.90;;;;;;4944195;28;20503;-82
2021/12/21 12:33:08;;;;;;;23.63;15.23;;;6.50;99.90;;;;;;4956378;28;20603;-81
2021/12/21 12:35:39;;;;;;;26.35;16.00;;;6.50;99.90;;;;;;4948538;28;20129;-83
2021/12/21 12:38:12;;;;;;;25.33;14.13;;;6.50;99.90;;;;;;4947701;28;20039;-82
2021/12/21 12:40:46;;;;;;;23.45;14.73;;;6.60;99.90;;;;;;4952411;28;20051;-81
2021/12/21 12:43:23;;;;;;;23.40;14.45;;;6.60;99.90;;;;;;4944748;28;20054;-82
2021/12/21 12:45:52;;;;;;;25.70;14.00;;;6.70;99.90;;;;;;4945376;28;20079;-81
2021/12/21 12:48:23;;;;;;;20.75;13.32;;;6.70;99.90;;;;;;4948801;28;20086;-82
2021/12/21 12:50:55;;;;;;;20.85;13.50;;;6.70;99.90;;;;;;4949238;28;20051;-82
2021/12/21 12:53:33;;;;;;;22.80;13.57;;;6.70;99.90;;;;;;4949571;28;20043;-82
2021/12/21 12:56:00;;;;;;;22.10;13.63;;;6.70;99.90;;;;;;4931472;28;20166;-83
2021/12/21 12:58:59;;;;;;;24.65;14.10;;;6.70;99.90;;;;;;4925930;28;20050;-82
2021/12/21 13:01:33;;;;;;;20.58;12.85;;;6.70;99.90;;;;;;4929500;28;20048;-82
2021/12/21 13:04:08;;;;;;;24.63;14.25;;;6.70;99.90;;;;;;4918533;29;20047;-84
2021/12/21 13:06:38;;;;;;;23.10;13.35;;;6.80;99.90;;;;;;4913360;29;20065;-83
2021/12/21 13:09:12;;;;;;;23.00;12.98;;;6.80;99.90;;;;;;4917679;29;20107;-83
2021/12/21 13:11:40;;;;;;;22.13;13.82;;;6.80;99.90;;;;;;4922154;29;20067;-80
2021/12/21 13:14:12;;;;;;;25.48;14.07;;;6.80;99.90;;;;;;4902731;29;20052;-82
2021/12/21 13:16:40;;;;;;;34.65;15.85;;;6.80;99.90;;;;;;4919202;29;20052;-81
2021/12/21 13:19:10;;;;;;;23.00;14.20;;;6.90;99.90;;;;;;4913038;29;20484;-81
2021/12/21 13:21:47;;;;;;;24.00;14.93;;;6.90;99.90;;;;;;4918860;29;20135;-81
2021/12/21 13:24:21;;;;;;;26.98;15.55;;;7.00;99.90;;;;;;4914243;29;20103;-82
2021/12/21 13:26:52;;;;;;;25.92;16.70;;;7.00;99.90;;;;;;4916854;29;20067;-81
2021/12/21 13:29:31;;;;;;;26.92;15.35;;;7.00;99.90;;;;;;4918891;29;20058;-81
2021/12/21 13:32:01;;;;;;;26.85;14.80;;;7.00;99.90;;;;;;4905231;29;20110;-83
2021/12/21 13:34:29;;;;;;;23.30;13.95;;;7.10;99.90;;;;;;4918580;29;20473;-82
2021/12/21 13:37:03;;;;;;;21.15;12.73;;;7.10;99.90;;;;;;4919302;29;20528;-82
2021/12/21 13:39:32;;;;;;;22.52;12.98;;;7.20;99.90;;;;;;4914627;29;20047;-83
2021/12/21 13:42:19;;;;;;;22.20;14.25;;;7.20;99.90;;;;;;4925130;29;20043;-83
2021/12/21 13:44:46;;;;;;;22.20;13.23;;;7.20;99.90;;;;;;4927953;29;20433;-82
2021/12/21 13:47:25;;;;;;;24.00;13.10;;;7.30;99.90;;;;;;4932068;29;20062;-82
2021/12/21 13:50:16;;;;;;;20.15;12.52;;;7.30;99.90;;;;;;4923627;29;20056;-83
2021/12/21 13:52:52;;;;;;;22.38;13.80;;;7.20;99.90;;;;;;4901828;29;20579;-82
2021/12/21 13:55:30;;;;;;;21.10;12.95;;;7.30;99.90;;;;;;4912224;29;20527;-83
2021/12/21 13:58:02;;;;;;;22.73;13.40;;;7.30;99.90;;;;;;4930117;29;20138;-82
2021/12/21 14:00:34;;;;;;;21.00;12.02;;;7.30;99.90;;;;;;4924064;28;20048;-83
2021/12/21 14:05:56;;;;;;;26.48;14.15;;;7.30;99.90;;;;;;4928194;29;20051;-82
2021/12/21 14:08:24;;;;;;;22.40;13.70;;;7.30;99.90;;;;;;4917301;28;20055;-82
2021/12/21 14:10:53;;;;;;;27.45;14.38;;;7.30;99.90;;;;;;4930138;29;20047;-83
2021/12/21 14:13:38;;;;;;;23.70;13.52;;;7.30;99.90;;;;;;4906157;29;20424;-82
2021/12/21 14:16:14;;;;;;;20.90;13.13;;;7.30;99.90;;;;;;4910822;29;20047;-82
2021/12/21 14:18:45;;;;;;;21.38;13.15;;;7.30;99.90;;;;;;4930243;29;20087;-81
2021/12/21 14:21:36;;;;;;;25.10;14.35;;;7.40;99.90;;;;;;4925669;29;20056;-82
2021/12/21 14:24:10;;;;;;;21.63;13.10;;;7.40;99.90;;;;;;4931839;29;20055;-82
2021/12/21 14:27:03;;;;;;;22.58;14.25;;;7.40;99.90;;;;;;4930056;29;20043;-83
2021/12/21 14:29:31;;;;;;;28.55;14.48;;;7.30;99.90;;;;;;4913121;29;20040;-82
2021/12/21 14:34:44;;;;;;;28.40;15.15;;;7.40;99.90;;;;;;4930759;29;20054;-81
2021/12/21 14:37:17;;;;;;;25.00;14.85;;;7.40;99.90;;;;;;4930293;29;20103;-81
2021/12/21 14:39:49;;;;;;;24.10;14.10;;;7.40;99.90;;;;;;4927923;29;20055;-83
2021/12/21 14:42:20;;;;;;;22.33;13.57;;;7.30;99.90;;;;;;4916599;29;20103;-84
2021/12/21 14:44:53;;;;;;;22.88;13.80;;;7.40;99.90;;;;;;4928086;29;20464;-81
2021/12/21 14:47:27;;;;;;;28.35;14.85;;;7.40;99.90;;;;;;4916434;29;20118;-82
2021/12/21 14:49:56;;;;;;;26.75;14.65;;;7.30;99.90;;;;;;4914452;29;20467;-81
2021/12/21 14:52:43;;;;;;;25.77;15.85;;;7.30;99.90;;;;;;4929462;28;20401;-81
2021/12/21 14:55:12;;;;;;;30.25;16.05;;;7.30;99.90;;;;;;4929799;29;20509;-79
2021/12/21 14:57:49;;;;;;;26.58;15.23;;;7.30;99.90;;;;;;4931360;29;20051;-78
2021/12/21 15:00:18;;;;;;;26.47;15.60;;;7.30;99.90;;;;;;4931983;29;20051;-79
2021/12/21 15:05:19;;;;;;;26.80;16.67;;;7.30;99.90;;;;;;4930804;29;20052;-80
2021/12/21 15:07:46;;;;;;;27.48;15.65;;;7.40;99.90;;;;;;4929739;29;20047;-81
2021/12/21 15:10:16;;;;;;;26.80;15.57;;;7.40;99.90;;;;;;4917182;29;20043;-80
2021/12/21 15:12:44;;;;;;;26.38;15.55;;;7.40;99.90;;;;;;4931840;29;20055;-79
2021/12/21 15:15:11;;;;;;;25.00;14.30;;;7.40;99.90;;;;;;4932481;29;20094;-81
2021/12/21 15:17:39;;;;;;;28.53;16.70;;;7.40;99.90;;;;;;4931590;29;20051;-82
2021/12/21 15:20:09;;;;;;;28.27;15.70;;;7.40;99.90;;;;;;4919728;29;20292;-80
2021/12/21 15:22:38;;;;;;;28.73;17.25;;;7.40;99.90;;;;;;4925496;29;20047;-80
2021/12/21 15:25:06;;;;;;;29.10;15.27;;;7.40;99.90;;;;;;4928560;29;20051;-79
2021/12/21 15:27:33;;;;;;;27.92;16.45;;;7.40;99.90;;;;;;4908152;29;20051;-82
2021/12/21 15:30:00;;;;;;;27.85;15.55;;;7.30;99.90;;;;;;4927307;29;20054;-79
2021/12/21 15:32:27;;;;;;;26.35;16.08;;;7.30;99.90;;;;;;4909322;29;20055;-79
2021/12/21 15:35:00;;;;;;;29.85;17.02;;;7.20;99.90;;;;;;4929132;29;20532;-81
2021/12/21 15:37:28;;;;;;;33.75;16.85;;;7.20;99.90;;;;;;4928313;29;20055;-80
2021/12/21 15:39:57;;;;;;;29.98;16.65;;;7.10;99.90;;;;;;4929497;29;20075;-81
2021/12/21 15:42:24;;;;;;;27.10;17.85;;;7.10;99.90;;;;;;4920051;29;20062;-80
2021/12/21 15:45:15;;;;;;;32.35;17.75;;;7.00;99.90;;;;;;4925246;29;20038;-80
2021/12/21 15:47:43;;;;;;;34.45;19.15;;;6.90;99.90;;;;;;4912721;29;20075;-79
2021/12/21 15:50:11;;;;;;;36.17;19.73;;;6.90;99.90;;;;;;4926982;29;20134;-80
2021/12/21 15:52:39;;;;;;;33.75;19.63;;;6.80;99.90;;;;;;4908173;29;20445;-80
2021/12/21 15:55:08;;;;;;;32.92;19.25;;;6.70;99.90;;;;;;4922982;29;20051;-80
2021/12/21 15:57:35;;;;;;;33.90;18.55;;;6.70;99.90;;;;;;4906383;29;20480;-80
2021/12/21 16:00:06;;;;;;;28.15;17.75;;;6.60;99.90;;;;;;4911738;29;20047;-81
2021/12/21 16:02:34;;;;;;;34.15;19.30;;;6.50;99.90;;;;;;4938156;28;20047;-80
2021/12/21 16:05:01;;;;;;;31.80;18.50;;;6.50;99.90;;;;;;4945973;28;20055;-82
2021/12/21 16:07:28;;;;;;;32.15;18.80;;;6.40;99.90;;;;;;4941038;28;20571;-79
2021/12/21 16:09:56;;;;;;;26.67;16.80;;;6.30;99.90;;;;;;4946524;28;20059;-80
2021/12/21 16:12:24;;;;;;;36.10;18.45;;;6.30;99.90;;;;;;4942814;28;20058;-79
2021/12/21 16:14:51;;;;;;;34.03;19.40;;;6.20;99.90;;;;;;4944183;28;20047;-81
2021/12/21 16:17:19;;;;;;;32.50;18.48;;;6.20;99.90;;;;;;4943691;28;20079;-81
2021/12/21 16:19:46;;;;;;;33.78;17.30;;;6.10;99.90;;;;;;4947896;28;20605;-82
2021/12/21 16:22:14;;;;;;;35.13;18.98;;;6.00;99.90;;;;;;4948155;28;20047;-82
2021/12/21 16:24:42;;;;;;;31.77;17.77;;;6.00;99.90;;;;;;4944169;28;20132;-81
2021/12/21 16:27:10;;;;;;;32.28;19.38;;;5.90;99.90;;;;;;4940795;28;20052;-82
2021/12/21 16:29:38;;;;;;;;;;;5.90;99.90;;;;;;4943913;28;20105;-82
2021/12/21 16:32:05;;;;;;;36.70;19.45;;;5.80;99.90;;;;;;4944158;28;19926;-81
2021/12/21 16:34:34;;;;;;;130.85;48.75;;;5.80;99.90;;;;;;4947450;28;20043;-81
2021/12/21 16:37:01;;;;;;;48.40;27.97;;;5.70;99.90;;;;;;4944384;28;20461;-82
2021/12/21 16:39:29;;;;;;;34.30;19.55;;;5.70;99.90;;;;;;4939765;28;20362;-82
2021/12/21 16:41:56;;;;;;;32.88;18.40;;;5.60;99.90;;;;;;4947247;28;20047;-82
2021/12/21 16:44:23;;;;;;;42.55;22.88;;;5.60;99.90;;;;;;4946684;28;20146;-81
2021/12/21 16:46:50;;;;;;;63.20;31.90;;;5.50;99.90;;;;;;4945876;28;20047;-82
2021/12/21 16:49:18;;;;;;;51.20;27.92;;;5.50;99.90;;;;;;4946010;28;20070;-81
2021/12/21 16:51:45;;;;;;;45.28;22.80;;;5.40;99.90;;;;;;4946547;28;20073;-82
2021/12/21 16:54:12;;;;;;;55.90;31.95;;;5.40;99.90;;;;;;4946783;28;20488;-81
2021/12/21 16:56:39;;;;;;;50.03;28.80;;;5.30;99.90;;;;;;4946178;28;20059;-82
2021/12/21 16:59:11;;;;;;;40.78;25.10;;;5.30;99.90;;;;;;4945870;28;20110;-81
2021/12/21 17:01:39;;;;;;;40.03;22.50;;;5.30;99.90;;;;;;4939394;28;20098;-81
2021/12/21 17:04:06;;;;;;;40.95;21.98;;;5.30;99.90;;;;;;4928055;29;20043;-81
2021/12/21 17:06:34;;;;;;;42.85;23.45;;;5.30;99.90;;;;;;4911496;29;20134;-80
2021/12/21 17:09:01;;;;;;;41.28;22.45;;;5.20;99.90;;;;;;4928691;29;20048;-81
2021/12/21 17:11:29;;;;;;;41.17;22.43;;;5.20;99.90;;;;;;4911389;29;20055;-79
2021/12/21 17:13:56;;;;;;;39.60;21.42;;;5.20;99.90;;;;;;4928084;29;20071;-80
2021/12/21 17:16:24;;;;;;;41.55;22.58;;;5.10;99.90;;;;;;4927231;29;20088;-80
2021/12/21 17:18:53;;;;;;;40.10;19.58;;;5.10;99.90;;;;;;4926929;28;20424;-81
2021/12/21 17:21:20;;;;;;;38.83;20.95;;;5.10;99.90;;;;;;4927317;29;20138;-81
2021/12/21 17:23:49;;;;;;;43.75;24.33;;;5.10;99.90;;;;;;4928403;29;20103;-81
2021/12/21 17:26:18;;;;;;;56.15;31.77;;;5.00;99.90;;;;;;4926614;29;20052;-81
2021/12/21 17:28:45;;;;;;;52.13;28.63;;;5.00;99.90;;;;;;4930205;29;20059;-81
2021/12/21 17:31:12;;;;;;;40.60;25.23;;;5.00;99.90;;;;;;4909686;29;20107;-81
2021/12/21 17:33:40;;;;;;;41.38;25.15;;;4.90;99.90;;;;;;4910557;29;20051;-80
2021/12/21 17:36:15;;;;;;;49.70;28.55;;;4.90;99.90;;;;;;4927473;29;20055;-81
2021/12/21 17:38:44;;;;;;;53.03;30.17;;;4.90;99.90;;;;;;4927630;29;20577;-81
2021/12/21 17:41:13;;;;;;;39.88;21.70;;;4.90;99.90;;;;;;4924250;29;20059;-81
2021/12/21 17:43:41;;;;;;;40.40;22.40;;;4.80;99.90;;;;;;4927417;29;20052;-81
2021/12/21 17:46:09;;;;;;;45.28;28.92;;;4.80;99.90;;;;;;4926265;29;20131;-82
2021/12/21 17:48:36;;;;;;;50.92;31.25;;;4.80;99.90;;;;;;4909703;29;20102;-81
2021/12/21 17:51:03;;;;;;;49.10;28.08;;;4.70;99.90;;;;;;4910905;29;20520;-81
2021/12/21 17:53:30;;;;;;;41.90;22.00;;;4.70;99.90;;;;;;4926854;29;20111;-80
2021/12/21 17:55:58;;;;;;;73.80;38.58;;;4.60;99.90;;;;;;4927388;29;20048;-81
2021/12/21 17:58:25;;;;;;;85.93;45.92;;;4.60;99.90;;;;;;4926828;29;20104;-81
2021/12/21 18:00:52;;;;;;;53.75;29.02;;;4.60;99.90;;;;;;4929354;28;20126;-81
2021/12/21 18:03:19;;;;;;;52.78;30.30;;;4.50;99.90;;;;;;4926930;29;20505;-80
2021/12/21 18:05:47;;;;;;;59.55;29.42;;;4.50;99.90;;;;;;4927978;29;20513;-80
2021/12/21 18:08:14;;;;;;;66.10;33.50;;;4.40;99.90;;;;;;4909411;29;20073;-81
2021/12/21 18:10:43;;;;;;;67.45;35.40;;;4.40;99.90;;;;;;4927067;29;20051;-80
2021/12/21 18:13:11;;;;;;;69.35;38.38;;;4.40;99.90;;;;;;4908813;29;20048;-81
2021/12/21 18:15:38;;;;;;;56.27;30.40;;;4.30;99.90;;;;;;4909979;29;20519;-80
2021/12/21 18:18:05;;;;;;;59.22;30.85;;;4.20;99.90;;;;;;4926984;29;20114;-80
2021/12/21 18:20:34;;;;;;;61.30;31.88;;;4.20;99.90;;;;;;4926002;29;20055;-80
2021/12/21 18:23:02;;;;;;;79.05;38.20;;;4.10;99.90;;;;;;4926861;29;20512;-81
2021/12/21 18:25:30;;;;;;;58.83;31.42;;;4.20;99.90;;;;;;4909072;29;20047;-81
2021/12/21 18:27:57;;;;;;;56.05;28.95;;;4.20;99.90;;;;;;4909828;29;20103;-81
2021/12/21 18:30:27;;;;;;;66.38;34.00;;;4.10;99.90;;;;;;4926191;29;20039;-81
2021/12/21 18:32:54;;;;;;;53.38;26.80;;;4.10;99.90;;;;;;4912300;29;20063;-80
2021/12/21 18:35:21;;;;;;;53.78;30.10;;;4.00;99.90;;;;;;4931045;29;20063;-82
2021/12/21 18:37:50;;;;;;;64.63;30.52;;;4.00;99.90;;;;;;4931039;29;20081;-81
2021/12/21 18:40:27;;;;;;;;;;;4.00;99.90;;;;;;4930388;29;20091;-82
2021/12/21 18:42:58;;;;;;;65.15;31.88;;;3.90;99.90;;;;;;4926027;29;20379;-83
2021/12/21 18:45:25;;;;;;;47.30;23.63;;;3.90;99.90;;;;;;4912475;29;20051;-82
2021/12/21 18:47:52;;;;;;;50.17;25.00;;;3.90;99.90;;;;;;4930686;29;20866;-82
2021/12/21 18:50:22;;;;;;;44.15;25.05;;;3.90;99.90;;;;;;4913039;29;20464;-83
2021/12/21 18:52:50;;;;;;;53.20;23.95;;;3.80;99.90;;;;;;4929721;29;20055;-82
2021/12/21 18:55:20;;;;;;;41.17;22.23;;;3.80;99.90;;;;;;4917652;29;20063;-82
2021/12/21 18:57:53;;;;;;;42.28;23.20;;;3.80;99.90;;;;;;4918276;29;20051;-80
2021/12/21 19:00:23;;;;;;;43.97;24.00;;;3.80;99.90;;;;;;4928381;29;20088;-82
2021/12/21 19:03:07;;;;;;;43.15;24.02;;;3.80;99.90;;;;;;4930204;29;20535;-82
2021/12/21 19:05:40;;;;;;;39.58;22.33;;;3.80;99.90;;;;;;4913002;29;20126;-80
2021/12/21 19:08:09;;;;;;;38.72;23.20;;;3.80;99.90;;;;;;4927921;29;20051;-82
2021/12/21 19:10:39;;;;;;;37.47;22.17;;;3.80;99.90;;;;;;4929359;29;20083;-82
2021/12/21 19:13:07;;;;;;;42.33;23.55;;;3.80;99.90;;;;;;4929895;29;20044;-82
2021/12/21 19:15:35;;;;;;;43.97;24.25;;;3.70;99.90;;;;;;4930047;29;20060;-81
2021/12/21 19:18:03;;;;;;;37.65;22.38;;;3.70;99.90;;;;;;4913504;29;20052;-80
2021/12/21 19:20:30;;;;;;;40.57;21.77;;;3.70;99.90;;;;;;4928970;29;20421;-81
2021/12/21 19:23:00;;;;;;;43.97;23.60;;;3.60;99.90;;;;;;4929684;29;20046;-81
2021/12/21 19:25:29;;;;;;;41.15;21.35;;;3.60;99.90;;;;;;4927142;29;20634;-81
2021/12/21 19:27:57;;;;;;;43.53;21.63;;;3.60;99.90;;;;;;4929954;29;20394;-82
2021/12/21 19:30:25;;;;;;;41.78;21.80;;;3.50;99.90;;;;;;4911947;29;20122;-80
2021/12/21 19:32:52;;;;;;;45.20;23.10;;;3.50;99.90;;;;;;4929302;29;20051;-79
2021/12/21 19:35:20;;;;;;;44.40;22.70;;;3.50;99.90;;;;;;4927762;29;20052;-82
2021/12/21 19:37:47;;;;;;;43.35;23.48;;;3.40;99.90;;;;;;4927035;29;20485;-82
2021/12/21 19:40:15;;;;;;;44.58;25.05;;;3.40;99.90;;;;;;4927309;29;20062;-80
2021/12/21 19:42:42;;;;;;;42.17;23.50;;;3.40;99.90;;;;;;4926943;29;20055;-80
2021/12/21 19:45:09;;;;;;;130.57;63.35;;;3.40;99.90;;;;;;4927021;29;20062;-77
2021/12/21 19:48:00;;;;;;;93.90;44.53;;;3.40;99.90;;;;;;4929587;29;20074;-82
2021/12/21 19:50:27;;;;;;;98.95;51.90;;;3.30;99.90;;;;;;4918363;29;20495;-81
2021/12/21 19:52:56;;;;;;;67.97;36.92;;;3.30;99.90;;;;;;4928277;29;20072;-80
2021/12/21 19:55:25;;;;;;;88.93;44.53;;;3.30;99.90;;;;;;4927553;29;20059;-81
2021/12/21 19:57:54;;;;;;;54.80;34.47;;;3.30;99.90;;;;;;4928254;29;20786;-80
2021/12/21 20:00:22;;;;;;;57.22;31.75;;;3.30;99.90;;;;;;4925290;29;20043;-80
2021/12/21 20:02:49;;;;;;;57.00;34.08;;;3.20;99.90;;;;;;4929168;29;20709;-82
2021/12/21 20:05:17;;;;;;;46.05;26.55;;;3.30;99.90;;;;;;4928110;29;20059;-83
2021/12/21 20:07:43;;;;;;;41.22;24.42;;;3.20;99.90;;;;;;4922042;29;20473;-82
2021/12/21 20:10:23;;;;;;;42.28;24.38;;;3.20;99.90;;;;;;4922750;29;20094;-84
2021/12/21 20:12:55;;;;;;;49.58;29.02;;;3.20;99.90;;;;;;4929227;29;20081;-84
2021/12/21 20:15:28;;;;;;;54.53;33.03;;;3.20;99.90;;;;;;4912323;29;20528;-85